createdAt,value
2022-12-29T00:00:11.965Z,4.52
2022-12-29T00:02:42.657Z,4.67
2022-12-29T00:05:10.574Z,4.60
2022-12-29T00:07:37.915Z,4.62
2022-12-29T00:10:06.508Z,4.66
2022-12-29T00:12:54.031Z,4.62
2022-12-29T00:15:39.387Z,4.63
2022-12-29T00:18:08.437Z,4.62
2022-12-29T00:20:56.490Z,4.58
2022-12-29T00:23:42.657Z,4.63
2022-12-29T00:26:36.390Z,4.71
2022-12-29T00:29:22.719Z,4.71
2022-12-29T00:32:08.363Z,4.76
2022-12-29T00:34:54.611Z,4.62
2022-12-29T00:37:41.862Z,4.69
2022-12-29T00:40:27.832Z,4.56
2022-12-29T00:43:13.575Z,4.51
2022-12-29T00:45:42.922Z,4.60
2022-12-29T00:48:10.336Z,4.53
2022-12-29T00:50:37.616Z,4.58
2022-12-29T00:53:04.969Z,4.58
2022-12-29T00:55:32.045Z,4.54
2022-12-29T00:57:59.481Z,4.57
2022-12-29T01:00:26.764Z,4.46
2022-12-29T01:02:54.174Z,4.62
2022-12-29T01:05:21.442Z,4.70
2022-12-29T01:07:48.708Z,4.58
2022-12-29T01:10:16.322Z,4.62
2022-12-29T01:12:46.407Z,4.57
2022-12-29T01:15:16.037Z,4.59
2022-12-29T01:17:43.850Z,4.55
2022-12-29T01:20:12.162Z,4.73
2022-12-29T01:22:39.556Z,4.63
2022-12-29T01:25:07.337Z,4.64
2022-12-29T01:27:35.324Z,4.69
2022-12-29T01:30:02.615Z,4.66
2022-12-29T01:32:31.437Z,4.79
2022-12-29T01:34:59.865Z,4.79
2022-12-29T01:37:27.028Z,4.78
2022-12-29T01:39:54.172Z,4.80
2022-12-29T01:42:25.444Z,4.85
2022-12-29T01:45:02.773Z,4.64
2022-12-29T01:47:31.570Z,4.80
2022-12-29T01:50:04.142Z,4.77
2022-12-29T01:52:34.658Z,4.73
2022-12-29T01:55:04.537Z,4.85
2022-12-29T01:57:38.289Z,4.89
2022-12-29T02:00:14.846Z,4.88
2022-12-29T02:02:52.921Z,4.88
2022-12-29T02:05:33.497Z,4.74
2022-12-29T02:08:02.558Z,4.68
2022-12-29T02:10:32.661Z,4.81
2022-12-29T02:12:59.999Z,4.82
2022-12-29T02:15:35.958Z,4.93
2022-12-29T02:18:15.464Z,4.93
2022-12-29T02:21:13.505Z,5.09
2022-12-29T02:24:01.033Z,5.10
2022-12-29T02:26:42.626Z,4.78
2022-12-29T02:29:09.726Z,4.75
2022-12-29T02:31:56.102Z,4.59
2022-12-29T02:34:42.937Z,4.66
2022-12-29T02:37:23.624Z,4.67
2022-12-29T02:39:56.816Z,4.69
2022-12-29T02:42:47.269Z,4.59
2022-12-29T02:45:41.093Z,4.67
2022-12-29T02:48:19.437Z,4.58
2022-12-29T02:50:58.959Z,4.51
2022-12-29T02:53:46.151Z,4.48
2022-12-29T02:56:13.373Z,4.51
2022-12-29T02:58:42.052Z,4.60
2022-12-29T03:01:15.716Z,4.62
2022-12-29T03:03:52.844Z,4.70
2022-12-29T03:06:36.936Z,4.41
2022-12-29T03:09:18.299Z,4.35
2022-12-29T03:12:25.348Z,4.39
2022-12-29T03:15:24.121Z,4.56
2022-12-29T03:18:14.564Z,4.44
2022-12-29T03:20:54.959Z,4.28
2022-12-29T03:23:25.880Z,4.26
2022-12-29T03:26:00.053Z,4.15
2022-12-29T03:28:33.849Z,4.25
2022-12-29T03:31:02.705Z,4.14
2022-12-29T03:33:33.245Z,4.30
2022-12-29T03:36:08.466Z,4.14
2022-12-29T03:38:41.948Z,4.04
2022-12-29T03:41:14.459Z,3.98
2022-12-29T03:43:41.813Z,3.99
2022-12-29T03:46:09.248Z,3.80
2022-12-29T03:48:37.560Z,3.91
2022-12-29T03:51:04.830Z,3.84
2022-12-29T03:53:32.739Z,3.88
2022-12-29T03:56:01.002Z,3.94
2022-12-29T03:58:28.398Z,3.86
2022-12-29T04:01:07.724Z,3.95
2022-12-29T04:03:39.918Z,4.01
2022-12-29T04:06:08.793Z,3.99
2022-12-29T04:08:50.161Z,3.89
2022-12-29T04:11:17.261Z,4.10
2022-12-29T04:13:48.713Z,4.11
2022-12-29T04:16:20.383Z,3.98
2022-12-29T04:18:48.033Z,3.92
2022-12-29T04:21:15.275Z,3.98
2022-12-29T04:23:43.776Z,4.05
2022-12-29T04:26:11.780Z,4.04
2022-12-29T04:28:49.723Z,4.14
2022-12-29T04:31:34.589Z,4.00
2022-12-29T04:34:02.530Z,4.10
2022-12-29T04:36:30.460Z,4.04
2022-12-29T04:38:58.623Z,3.95
2022-12-29T04:41:26.015Z,3.64
2022-12-29T04:43:54.101Z,3.57
2022-12-29T04:46:36.743Z,3.52
2022-12-29T04:49:23.676Z,3.47
2022-12-29T04:52:01.004Z,3.55
2022-12-29T04:54:28.685Z,3.29
2022-12-29T04:57:05.399Z,3.12
2022-12-29T04:59:32.816Z,3.02
2022-12-29T05:02:00.607Z,3.05
2022-12-29T05:04:27.853Z,3.07
2022-12-29T05:06:55.042Z,3.09
2022-12-29T05:09:22.186Z,2.96
2022-12-29T05:11:49.432Z,2.99
2022-12-29T05:14:17.076Z,3.09
2022-12-29T05:16:46.449Z,3.03
2022-12-29T05:19:14.853Z,2.97
2022-12-29T05:21:42.152Z,2.91
2022-12-29T05:24:09.621Z,2.92
2022-12-29T05:26:36.841Z,2.89
2022-12-29T05:29:27.107Z,2.86
2022-12-29T05:31:55.687Z,2.83
2022-12-29T05:34:23.144Z,2.82
2022-12-29T05:36:50.518Z,2.77
2022-12-29T05:39:17.849Z,2.86
2022-12-29T05:41:50.706Z,2.92
2022-12-29T05:44:41.247Z,2.95
2022-12-29T05:47:24.958Z,3.19
2022-12-29T05:50:21.465Z,3.18
2022-12-29T05:53:07.349Z,3.19
2022-12-29T05:55:36.010Z,3.07
2022-12-29T05:58:03.292Z,3.14
2022-12-29T06:00:30.776Z,3.13
2022-12-29T06:02:59.154Z,3.21
2022-12-29T06:05:27.196Z,3.24
2022-12-29T06:07:54.515Z,3.16
2022-12-29T06:10:22.136Z,3.39
2022-12-29T06:12:58.311Z,3.36
2022-12-29T06:15:25.868Z,3.40
2022-12-29T06:17:54.443Z,3.34
2022-12-29T06:20:21.760Z,3.34
2022-12-29T06:22:50.504Z,3.40
2022-12-29T06:25:19.663Z,3.64
2022-12-29T06:27:47.678Z,3.97
2022-12-29T06:30:16.063Z,4.19
2022-12-29T06:32:44.535Z,4.16
2022-12-29T06:35:13.301Z,4.16
2022-12-29T06:37:45.544Z,4.38
2022-12-29T06:40:13.196Z,4.26
2022-12-29T06:42:58.848Z,4.35
2022-12-29T06:45:58.467Z,4.36
2022-12-29T06:48:26.088Z,4.28
2022-12-29T06:50:53.364Z,4.43
2022-12-29T06:53:20.923Z,4.57
2022-12-29T06:55:48.274Z,4.59
2022-12-29T06:58:15.493Z,4.79
2022-12-29T07:00:42.685Z,4.90
2022-12-29T07:03:10.053Z,4.90
2022-12-29T07:05:38.077Z,5.19
2022-12-29T07:08:05.878Z,5.15
2022-12-29T07:10:33.146Z,5.01
2022-12-29T07:13:00.549Z,5.06
2022-12-29T07:15:27.878Z,5.04
2022-12-29T07:17:55.153Z,5.11
2022-12-29T07:20:26.763Z,5.02
2022-12-29T07:22:54.910Z,5.03
2022-12-29T07:25:22.698Z,4.96
2022-12-29T07:27:49.913Z,4.91
2022-12-29T07:30:17.511Z,4.96
2022-12-29T07:32:44.745Z,5.21
2022-12-29T07:35:11.970Z,5.26
2022-12-29T07:37:39.375Z,5.56
2022-12-29T07:40:07.389Z,5.59
2022-12-29T07:42:34.610Z,5.44
2022-12-29T07:45:02.392Z,5.55
2022-12-29T07:47:51.457Z,5.51
2022-12-29T07:50:18.901Z,5.29
2022-12-29T07:52:48.161Z,5.26
2022-12-29T07:55:16.745Z,5.20
2022-12-29T07:57:44.427Z,5.39
2022-12-29T08:00:12.428Z,5.58
2022-12-29T08:02:40.586Z,5.69
2022-12-29T08:05:08.153Z,5.73
2022-12-29T08:07:35.375Z,5.69
2022-12-29T08:10:02.928Z,5.95
2022-12-29T08:12:30.844Z,5.83
2022-12-29T08:14:58.100Z,6.23
2022-12-29T08:17:25.342Z,6.29
2022-12-29T08:19:52.460Z,6.48
2022-12-29T08:22:19.686Z,6.62
2022-12-29T08:24:47.082Z,6.90
2022-12-29T08:27:20.408Z,6.82
2022-12-29T08:29:48.965Z,6.93
2022-12-29T08:32:16.864Z,7.06
2022-12-29T08:34:43.972Z,7.10
2022-12-29T08:37:11.127Z,6.96
2022-12-29T08:39:38.255Z,6.93
2022-12-29T08:42:05.417Z,6.70
2022-12-29T08:44:32.477Z,6.81
2022-12-29T08:46:59.724Z,7.02
2022-12-29T08:49:27.162Z,6.94
2022-12-29T08:51:54.377Z,6.90
2022-12-29T08:54:21.512Z,6.75
2022-12-29T08:56:48.787Z,6.84
2022-12-29T08:59:16.890Z,7.06
2022-12-29T09:01:46.531Z,7.05
2022-12-29T09:04:16.474Z,7.16
2022-12-29T09:06:46.384Z,7.24
2022-12-29T09:09:14.866Z,7.09
2022-12-29T09:11:42.432Z,7.01
2022-12-29T09:14:09.625Z,6.97
2022-12-29T09:16:38.383Z,7.09
2022-12-29T09:19:06.092Z,7.26
2022-12-29T09:21:33.444Z,7.46
2022-12-29T09:24:00.669Z,7.58
2022-12-29T09:26:28.142Z,7.79
2022-12-29T09:28:56.380Z,7.93
2022-12-29T09:31:23.661Z,8.01
2022-12-29T09:33:50.971Z,8.14
2022-12-29T09:36:18.101Z,8.23
2022-12-29T09:38:45.337Z,8.16
2022-12-29T09:41:31.062Z,8.19
2022-12-29T09:44:35.458Z,8.04
2022-12-29T09:47:03.062Z,7.66
2022-12-29T09:49:50.677Z,7.42
2022-12-29T09:52:23.050Z,7.57
2022-12-29T09:55:14.140Z,7.60
2022-12-29T09:57:44.619Z,7.88
2022-12-29T10:00:20.993Z,8.02
2022-12-29T10:02:53.538Z,7.94
2022-12-29T10:05:40.841Z,8.04
2022-12-29T10:08:51.334Z,7.64
2022-12-29T10:12:04.293Z,7.70
2022-12-29T10:15:00.256Z,7.64
2022-12-29T10:17:27.259Z,7.81
2022-12-29T10:19:57.286Z,7.73
2022-12-29T10:22:44.553Z,7.61
2022-12-29T10:25:28.455Z,7.75
2022-12-29T10:28:02.856Z,7.86
2022-12-29T10:30:30.610Z,7.78
2022-12-29T10:33:05.890Z,7.84
2022-12-29T10:35:38.471Z,7.98
2022-12-29T10:38:19.757Z,7.99
2022-12-29T10:41:10.587Z,8.14
2022-12-29T10:43:48.977Z,8.07
2022-12-29T10:46:26.555Z,8.01
2022-12-29T10:48:54.112Z,7.95
2022-12-29T10:51:49.683Z,8.19
2022-12-29T10:54:50.664Z,7.91
2022-12-29T10:57:40.891Z,7.86
2022-12-29T11:00:17.476Z,7.71
2022-12-29T11:02:47.844Z,7.78
2022-12-29T11:05:40.351Z,7.81
2022-12-29T11:08:18.782Z,7.88
2022-12-29T11:10:47.556Z,7.73
2022-12-29T11:13:20.365Z,7.74
2022-12-29T11:15:50.290Z,7.67
2022-12-29T11:18:38.744Z,7.70
2022-12-29T11:21:08.761Z,7.49
2022-12-29T11:23:42.257Z,7.58
2022-12-29T11:26:12.532Z,7.83
2022-12-29T11:28:41.417Z,7.99
2022-12-29T11:31:10.271Z,8.15
2022-12-29T11:33:39.621Z,7.94
2022-12-29T11:36:12.125Z,7.77
2022-12-29T11:38:47.202Z,7.99
2022-12-29T11:41:20.464Z,7.98
2022-12-29T11:43:48.812Z,8.13
2022-12-29T11:46:22.324Z,8.20
2022-12-29T11:48:49.980Z,8.35
2022-12-29T11:51:46.084Z,8.61
2022-12-29T11:54:45.422Z,8.66
2022-12-29T11:57:16.620Z,8.60
2022-12-29T11:59:56.527Z,8.66
2022-12-29T12:02:40.369Z,8.68
2022-12-29T12:05:34.753Z,8.72
2022-12-29T12:08:14.922Z,8.72
2022-12-29T12:10:50.181Z,8.55
2022-12-29T12:13:26.002Z,8.70
2022-12-29T12:16:06.201Z,8.69
2022-12-29T12:18:43.231Z,8.85
2022-12-29T12:21:34.698Z,9.04
2022-12-29T12:24:35.377Z,9.16
2022-12-29T12:27:25.329Z,9.20
2022-12-29T12:30:22.223Z,9.22
2022-12-29T12:32:56.140Z,9.16
2022-12-29T12:35:47.938Z,9.25
2022-12-29T12:38:38.788Z,9.30
2022-12-29T12:41:23.544Z,9.44
2022-12-29T12:44:02.074Z,9.51
2022-12-29T12:46:38.935Z,9.46
2022-12-29T12:49:24.983Z,9.49
2022-12-29T12:52:05.102Z,9.29
2022-12-29T12:54:48.068Z,9.19
2022-12-29T12:57:37.035Z,9.19
2022-12-29T13:00:07.215Z,9.09
2022-12-29T13:02:57.025Z,8.97
2022-12-29T13:05:30.237Z,8.88
2022-12-29T13:08:31.576Z,8.81
2022-12-29T13:11:02.035Z,8.71
2022-12-29T13:13:49.329Z,8.67
2022-12-29T13:16:34.671Z,8.72
2022-12-29T13:19:04.912Z,8.91
2022-12-29T13:21:57.333Z,8.75
2022-12-29T13:24:50.429Z,8.51
2022-12-29T13:27:40.751Z,8.31
2022-12-29T13:30:16.752Z,8.27
2022-12-29T13:33:02.648Z,8.40
2022-12-29T13:35:37.345Z,8.32
2022-12-29T13:38:19.992Z,8.39
2022-12-29T13:40:51.869Z,8.39
2022-12-29T13:43:21.074Z,8.48
2022-12-29T13:46:01.194Z,8.66
2022-12-29T13:48:50.063Z,8.57
2022-12-29T13:51:21.418Z,8.42
2022-12-29T13:54:13.728Z,8.23
2022-12-29T13:56:49.590Z,7.86
2022-12-29T13:59:39.769Z,7.99
2022-12-29T14:02:21.119Z,7.96
2022-12-29T14:05:06.316Z,7.89
2022-12-29T14:07:40.507Z,7.90
2022-12-29T14:10:26.886Z,7.91
2022-12-29T14:13:03.724Z,8.01
2022-12-29T14:15:31.117Z,8.19
2022-12-29T14:18:29.327Z,8.43
2022-12-29T14:20:58.701Z,8.40
2022-12-29T14:23:49.988Z,8.48
2022-12-29T14:26:47.071Z,8.38
2022-12-29T14:29:40.658Z,8.36
2022-12-29T14:32:34.429Z,8.46
2022-12-29T14:35:39.593Z,8.58
2022-12-29T14:38:16.917Z,8.68
2022-12-29T14:40:44.532Z,8.59
2022-12-29T14:43:41.194Z,8.66
2022-12-29T14:46:09.773Z,8.25
2022-12-29T14:48:44.658Z,8.18
2022-12-29T14:51:32.021Z,8.03
2022-12-29T14:53:59.307Z,8.00
2022-12-29T14:56:32.310Z,8.03
2022-12-29T14:59:05.241Z,8.21
2022-12-29T15:01:44.377Z,8.09
2022-12-29T15:04:33.188Z,7.91
2022-12-29T15:07:04.427Z,7.98
2022-12-29T15:09:50.796Z,7.98
2022-12-29T15:12:20.862Z,8.20
2022-12-29T15:15:00.051Z,8.15
2022-12-29T15:17:35.652Z,7.84
2022-12-29T15:20:29.994Z,7.99
2022-12-29T15:23:15.996Z,7.95
2022-12-29T15:26:01.680Z,7.93
2022-12-29T15:28:40.208Z,7.87
2022-12-29T15:31:12.012Z,7.90
2022-12-29T15:33:42.349Z,7.83
2022-12-29T15:36:24.755Z,7.72
2022-12-29T15:38:52.457Z,7.74
2022-12-29T15:41:28.283Z,7.83
2022-12-29T15:44:16.840Z,7.96
2022-12-29T15:46:44.339Z,8.05
2022-12-29T15:49:15.751Z,7.95
2022-12-29T15:51:44.893Z,7.82
2022-12-29T15:54:20.690Z,7.44
2022-12-29T15:56:48.650Z,7.20
2022-12-29T15:59:28.263Z,7.28
2022-12-29T16:01:58.197Z,7.43
2022-12-29T16:04:28.658Z,7.55
2022-12-29T16:07:03.137Z,7.78
2022-12-29T16:09:43.558Z,7.82
2022-12-29T16:12:18.885Z,8.03
2022-12-29T16:14:49.933Z,7.78
2022-12-29T16:17:22.105Z,7.83
2022-12-29T16:20:14.860Z,7.67
2022-12-29T16:22:51.759Z,7.91
2022-12-29T16:25:27.010Z,8.09
2022-12-29T16:27:54.987Z,7.88
2022-12-29T16:30:31.228Z,7.76
2022-12-29T16:33:04.183Z,7.71
2022-12-29T16:35:47.622Z,7.61
2022-12-29T16:38:16.639Z,7.39
2022-12-29T16:41:03.321Z,7.23
2022-12-29T16:43:34.359Z,6.80
2022-12-29T16:46:01.953Z,6.60
2022-12-29T16:48:51.670Z,6.54
2022-12-29T16:51:31.139Z,6.54
2022-12-29T16:53:59.859Z,6.28
2022-12-29T16:56:31.575Z,6.22
2022-12-29T16:59:10.127Z,6.13
2022-12-29T17:01:40.749Z,5.99
2022-12-29T17:04:11.791Z,5.85
2022-12-29T17:06:39.173Z,5.62
2022-12-29T17:09:23.158Z,5.66
2022-12-29T17:12:01.716Z,5.33
2022-12-29T17:14:41.842Z,5.35
2022-12-29T17:17:37.143Z,5.25
2022-12-29T17:20:15.978Z,5.32
2022-12-29T17:22:43.491Z,5.12
2022-12-29T17:25:19.036Z,5.20
2022-12-29T17:27:52.730Z,4.98
2022-12-29T17:30:31.149Z,5.07
2022-12-29T17:33:03.497Z,5.14
2022-12-29T17:35:30.915Z,5.31
2022-12-29T17:37:57.967Z,5.30
2022-12-29T17:40:28.431Z,5.21
2022-12-29T17:42:57.666Z,5.44
2022-12-29T17:45:33.954Z,5.32
2022-12-29T17:48:02.016Z,5.26
2022-12-29T17:50:31.252Z,5.32
2022-12-29T17:53:03.001Z,5.60
2022-12-29T17:55:37.090Z,5.45
2022-12-29T17:58:19.900Z,5.51
2022-12-29T18:00:49.305Z,5.46
2022-12-29T18:03:28.428Z,5.49
2022-12-29T18:05:56.694Z,5.58
2022-12-29T18:08:24.231Z,5.54
2022-12-29T18:10:54.136Z,5.56
2022-12-29T18:13:27.121Z,5.62
2022-12-29T18:15:57.631Z,5.57
2022-12-29T18:18:27.328Z,5.55
2022-12-29T18:20:59.031Z,5.60
2022-12-29T18:23:37.646Z,5.56
2022-12-29T18:26:27.345Z,5.51
2022-12-29T18:28:57.256Z,5.77
2022-12-29T18:31:30.661Z,5.90
2022-12-29T18:33:59.807Z,6.22
2022-12-29T18:36:27.736Z,6.53
2022-12-29T18:38:55.035Z,6.52
2022-12-29T18:41:30.750Z,6.56
2022-12-29T18:43:59.598Z,6.88
2022-12-29T18:46:27.508Z,7.13
2022-12-29T18:48:55.168Z,7.34
2022-12-29T18:51:25.507Z,7.38
2022-12-29T18:53:54.455Z,7.63
2022-12-29T18:56:22.967Z,7.67
2022-12-29T18:58:51.650Z,7.62
2022-12-29T19:01:22.362Z,7.53
2022-12-29T19:03:49.762Z,7.51
2022-12-29T19:06:17.297Z,7.30
2022-12-29T19:08:44.458Z,7.27
2022-12-29T19:11:12.130Z,7.42
2022-12-29T19:13:40.572Z,7.38
2022-12-29T19:16:13.331Z,7.39
2022-12-29T19:18:44.225Z,7.29
2022-12-29T19:21:13.327Z,7.27
2022-12-29T19:23:40.758Z,7.00
2022-12-29T19:26:08.123Z,7.14
2022-12-29T19:28:35.598Z,7.27
2022-12-29T19:31:03.207Z,6.96
2022-12-29T19:33:30.450Z,7.33
2022-12-29T19:36:02.352Z,7.08
2022-12-29T19:38:29.626Z,7.03
2022-12-29T19:40:56.920Z,6.96
2022-12-29T19:43:24.040Z,7.04
2022-12-29T19:45:52.766Z,7.15
2022-12-29T19:48:21.105Z,6.96
2022-12-29T19:50:48.372Z,6.84
2022-12-29T19:53:16.281Z,6.82
2022-12-29T19:55:45.105Z,6.76
2022-12-29T19:58:13.097Z,6.77
2022-12-29T20:00:42.194Z,6.77
2022-12-29T20:03:09.828Z,6.86
2022-12-29T20:05:37.261Z,6.87
2022-12-29T20:08:04.592Z,6.66
2022-12-29T20:10:31.858Z,6.46
2022-12-29T20:12:58.988Z,6.38
2022-12-29T20:15:26.171Z,6.37
2022-12-29T20:20:40.581Z,6.52
2022-12-29T20:23:09.083Z,6.49
2022-12-29T20:25:45.367Z,6.40
2022-12-29T20:28:14.625Z,6.22
2022-12-29T20:30:41.979Z,6.09
2022-12-29T20:33:09.520Z,5.90
2022-12-29T20:35:37.450Z,5.82
2022-12-29T20:38:05.305Z,5.94
2022-12-29T20:40:32.592Z,5.81
2022-12-29T20:42:59.872Z,5.94
2022-12-29T20:45:27.157Z,5.79
2022-12-29T20:47:54.992Z,5.74
2022-12-29T20:50:22.239Z,5.69
2022-12-29T20:52:49.423Z,5.87
2022-12-29T20:55:16.522Z,5.99
2022-12-29T20:58:21.886Z,6.17
2022-12-29T21:00:31.869Z,6.40
2022-12-29T21:03:00.507Z,6.44
2022-12-29T21:05:28.985Z,6.66
2022-12-29T21:07:59.873Z,6.75
2022-12-29T21:10:27.941Z,6.78
2022-12-29T21:12:55.137Z,6.86
2022-12-29T21:15:22.680Z,6.79
2022-12-29T21:17:49.902Z,6.87
2022-12-29T21:20:20.637Z,6.81
2022-12-29T21:22:48.659Z,6.65
2022-12-29T21:25:15.976Z,6.51
2022-12-29T21:27:44.391Z,6.47
2022-12-29T21:30:12.495Z,6.28
2022-12-29T21:32:40.906Z,5.96
2022-12-29T21:35:10.244Z,5.77
2022-12-29T21:37:37.490Z,5.43
2022-12-29T21:40:05.816Z,5.36
2022-12-29T21:42:33.045Z,5.16
2022-12-29T21:45:21.080Z,4.98
2022-12-29T21:48:07.992Z,4.86
2022-12-29T21:51:01.133Z,4.92
2022-12-29T21:53:39.174Z,4.92
2022-12-29T21:56:18.812Z,4.78
2022-12-29T21:59:09.773Z,5.09
2022-12-29T22:01:56.867Z,4.98
2022-12-29T22:04:44.456Z,4.80
2022-12-29T22:07:31.719Z,4.78
2022-12-29T22:10:17.392Z,4.76
2022-12-29T22:13:03.678Z,4.78
2022-12-29T22:15:33.674Z,4.93
2022-12-29T22:18:02.039Z,4.90
2022-12-29T22:20:32.152Z,4.60
2022-12-29T22:22:59.737Z,4.55
2022-12-29T22:25:27.065Z,4.44
2022-12-29T22:27:59.286Z,4.41
2022-12-29T22:30:28.573Z,4.36
2022-12-29T22:32:59.099Z,4.26
2022-12-29T22:35:26.279Z,4.22
2022-12-29T22:37:54.144Z,4.23
2022-12-29T22:40:21.531Z,4.28
2022-12-29T22:42:48.851Z,4.31
2022-12-29T22:45:16.362Z,4.46
2022-12-29T22:47:43.639Z,4.53
2022-12-29T22:50:11.114Z,4.63
2022-12-29T22:52:40.305Z,4.60
2022-12-29T22:55:08.605Z,4.59
2022-12-29T22:57:37.704Z,4.50
2022-12-29T23:00:08.828Z,4.46
2022-12-29T23:02:36.355Z,4.37
2022-12-29T23:05:05.231Z,4.34
2022-12-29T23:07:34.909Z,4.32
2022-12-29T23:10:03.863Z,4.31
2022-12-29T23:12:32.697Z,4.31
2022-12-29T23:15:00.084Z,4.42
2022-12-29T23:17:27.711Z,4.40
2022-12-29T23:19:54.945Z,4.28
2022-12-29T23:22:23.267Z,4.21
2022-12-29T23:24:50.777Z,4.19
2022-12-29T23:27:18.149Z,4.17
2022-12-29T23:29:45.313Z,4.23
2022-12-29T23:32:13.270Z,4.16
2022-12-29T23:34:41.330Z,4.23
2022-12-29T23:37:09.653Z,4.24
2022-12-29T23:39:36.760Z,4.29
2022-12-29T23:42:04.310Z,4.41
2022-12-29T23:44:31.651Z,4.41
2022-12-29T23:46:59.041Z,4.30
2022-12-29T23:49:26.343Z,4.19
2022-12-29T23:51:53.528Z,4.09
2022-12-29T23:54:20.750Z,4.12
2022-12-29T23:56:48.006Z,4.24
2022-12-29T23:59:15.295Z,4.11
